Ban Gong Hu — BOEY — position and weather

sailwx.info

Track history (hours):
 
Tides and Currents Weather Stations Pressure Air Temp Water Temp Dewpoint Dewpoint Depression Visibility Wind Speed Wind Dir Waves Ship Positions

Ban Gong Hu

Last reported at 2015-May-01 20:11 UTC. Time now 2015-May-04 21:09 UTC.
Position N 01°15' E 104°02'.

Length 229 m; draft 10.9 m.

Type: Tanker. MMSI: 412371000.

Date/timePositionNaut miles runAvg speedWind from/ knotsBaromVisibWave heightAir tempDewpointWater temp
2015-May-01 20:11N 01°15' E 104°02'812.6
2015-May-01 19:32N 01°12' E 103°54'14 0.3
2015-Apr-29 18:05N 01°11' E 103°41'0 0.1
2015-Apr-29 13:24N 01°11' E 103°41'7 0.1
2015-Apr-27 14:26N 01°17' E 103°44'1 0.0
2015-Apr-26 02:12N 01°18' E 103°44'4 6.0
2015-Apr-26 01:33N 01°15' E 103°47'9 8.5
2015-Apr-26 00:32N 01°14' E 103°55'10 9.0
2015-Apr-25 23:24N 01°19' E 104°04'0 0.1
2015-Apr-25 20:24N 01°19' E 104°04'0 0.0
2015-Apr-25 13:33N 01°19' E 104°04'0 0.0
2015-Apr-25 09:15N 01°19' E 104°04'2 2.2
2015-Apr-25 08:07N 01°17' E 104°04'2 3.4
2015-Apr-25 07:32N 01°16' E 104°02'2 0.5
2015-Apr-25 04:19N 01°16' E 104°04'0 0.3
2015-Apr-25 03:19N 01°16' E 104°04'1 0.9
2015-Apr-25 02:31N 01°16' E 104°04'  
Track history (hours):
 
Tides and Currents Weather Stations Pressure Air Temp Water Temp Dewpoint Dewpoint Depression Visibility Wind Speed Wind Dir Waves Ship Positions

Ban Gong Hu

Last reported at 2015-May-01 20:11 UTC. Time now 2015-May-04 21:09 UTC.
Position N 01°15' E 104°02'.

Length 229 m; draft 10.9 m.

Type: Tanker. MMSI: 412371000.

Date/timePositionNaut miles runAvg speedWind from/ knotsBaromVisibWave heightAir tempDewpointWater temp
2015-May-01 20:11N 01°15' E 104°02'812.6
2015-May-01 19:32N 01°12' E 103°54'14 0.3
2015-Apr-29 18:05N 01°11' E 103°41'0 0.1
2015-Apr-29 13:24N 01°11' E 103°41'7 0.1
2015-Apr-27 14:26N 01°17' E 103°44'1 0.0
2015-Apr-26 02:12N 01°18' E 103°44'4 6.0
2015-Apr-26 01:33N 01°15' E 103°47'9 8.5
2015-Apr-26 00:32N 01°14' E 103°55'10 9.0
2015-Apr-25 23:24N 01°19' E 104°04'0 0.1
2015-Apr-25 20:24N 01°19' E 104°04'0 0.0
2015-Apr-25 13:33N 01°19' E 104°04'0 0.0
2015-Apr-25 09:15N 01°19' E 104°04'2 2.2
2015-Apr-25 08:07N 01°17' E 104°04'2 3.4
2015-Apr-25 07:32N 01°16' E 104°02'2 0.5
2015-Apr-25 04:19N 01°16' E 104°04'0 0.3
2015-Apr-25 03:19N 01°16' E 104°04'1 0.9
2015-Apr-25 02:31N 01°16' E 104°04'  

Dump ship's entire track history